Aviation Digital Data Service (ADDS)

Output produced by METARs form (2258 UTC 23 March 2019)
found at http://www.aviationweather.gov/metar/data/
 
METAR text: RCMQ 232230Z 02004KT 3600 -RA BR SCT003 BKN008 OVC016 14/13 Q1017 NOSIG RMK A3004 APCH CLD SCT003
Conditions at: RCMQ (WUCHIA OBSERVATO, TW) observed 2230 UTC 23 March 2019
Temperature: 14.0°C (57°F)
Dewpoint: 13.0°C (55°F) [RH = 94%]
Pressure (altimeter): 30.03 inches Hg (1017.0 mb)
Winds: from the NNE (20 degrees) at 5 MPH (4 knots; 2.1 m/s)
Visibility: 2.24 miles (3.60 km)
Ceiling: 800 feet AGL
Clouds: scattered clouds at 300 feet AGL
broken clouds at 800 feet AGL
overcast cloud deck at 1600 feet AGL
Weather: -RA BR  (light rain, mist)

METAR text: RCMQ 232200Z 36007KT 3600 -RA BR SCT003 BKN008 OVC016 14/13 Q1017 BECMG 2400 RA BR RMK A3004 APCH CLD SCT003
Conditions at: RCMQ (WUCHIA OBSERVATO, TW) observed 2200 UTC 23 March 2019
Temperature: 14.0°C (57°F)
Dewpoint: 13.0°C (55°F) [RH = 94%]
Pressure (altimeter): 30.03 inches Hg (1017.0 mb)
Winds: from the N (360 degrees) at 8 MPH (7 knots; 3.6 m/s)
Visibility: 2.24 miles (3.60 km)
Ceiling: 800 feet AGL
Clouds: scattered clouds at 300 feet AGL
broken clouds at 800 feet AGL
overcast cloud deck at 1600 feet AGL
Weather: -RA BR  (light rain, mist)

METAR text: RCMQ 232130Z 36008KT 3600 -RA BR SCT003 BKN008 OVC016 14/13 Q1017 NOSIG RMK A3004 APCH CLD SCT003
Conditions at: RCMQ (WUCHIA OBSERVATO, TW) observed 2130 UTC 23 March 2019
Temperature: 14.0°C (57°F)
Dewpoint: 13.0°C (55°F) [RH = 94%]
Pressure (altimeter): 30.03 inches Hg (1017.0 mb)
Winds: from the N (360 degrees) at 9 MPH (8 knots; 4.1 m/s)
Visibility: 2.24 miles (3.60 km)
Ceiling: 800 feet AGL
Clouds: scattered clouds at 300 feet AGL
broken clouds at 800 feet AGL
overcast cloud deck at 1600 feet AGL
Weather: -RA BR  (light rain, mist)

METAR text: RCMQ 232100Z 01005KT 3600 -RA BR SCT003 BKN008 OVC016 14/13 Q1017 BECMG 5000 -RA BR RMK A3004 RA AMT 1.0MM APCH CLD SCT003
Conditions at: RCMQ (WUCHIA OBSERVATO, TW) observed 2100 UTC 23 March 2019
Temperature: 14.0°C (57°F)
Dewpoint: 13.0°C (55°F) [RH = 94%]
Pressure (altimeter): 30.03 inches Hg (1017.0 mb)
Winds: from the N (10 degrees) at 6 MPH (5 knots; 2.6 m/s)
Visibility: 2.24 miles (3.60 km)
Ceiling: 800 feet AGL
Clouds: scattered clouds at 300 feet AGL
broken clouds at 800 feet AGL
overcast cloud deck at 1600 feet AGL
Weather: -RA BR  (light rain, mist)

METAR text: RCMQ 232046Z 04002KT 3200 -RA BR SCT003 BKN008 OVC016 14/12 Q1017 RMK A3004 APCH CLD SCT003
Conditions at: RCMQ (WUCHIA OBSERVATO, TW) observed 2046 UTC 23 March 2019
Temperature: 14.0°C (57°F)
Dewpoint: 12.0°C (54°F) [RH = 88%]
Pressure (altimeter): 30.03 inches Hg (1017.0 mb)
Winds: from the NE (40 degrees) at 2 MPH (2 knots; 1.0 m/s)
Visibility: 1.99 miles (3.20 km)
Ceiling: 800 feet AGL
Clouds: scattered clouds at 300 feet AGL
broken clouds at 800 feet AGL
overcast cloud deck at 1600 feet AGL
Weather: -RA BR  (light rain, mist)

METAR text: RCMQ 232036Z 03007KT 5000 -RA BR SCT005 BKN016 BKN032 14/12 Q1017 RMK A3004 APCH CLD SCT005
Conditions at: RCMQ (WUCHIA OBSERVATO, TW) observed 2036 UTC 23 March 2019
Temperature: 14.0°C (57°F)
Dewpoint: 12.0°C (54°F) [RH = 88%]
Pressure (altimeter): 30.03 inches Hg (1017.0 mb)
Winds: from the NNE (30 degrees) at 8 MPH (7 knots; 3.6 m/s)
Visibility: 3 miles ( 5 km)
Ceiling: 1600 feet AGL
Clouds: scattered clouds at 500 feet AGL
broken clouds at 1600 feet AGL
broken clouds at 3200 feet AGL
Weather: -RA BR  (light rain, mist)

METAR text: RCMQ 232034Z 03007KT 9999 -RA SCT005 BKN016 BKN032 14/12 Q1017 RMK A3004 APCH CLD SCT005
Conditions at: RCMQ (WUCHIA OBSERVATO, TW) observed 2034 UTC 23 March 2019
Temperature: 14.0°C (57°F)
Dewpoint: 12.0°C (54°F) [RH = 88%]
Pressure (altimeter): 30.03 inches Hg (1017.0 mb)
Winds: from the NNE (30 degrees) at 8 MPH (7 knots; 3.6 m/s)
Visibility: 6 or more miles (10+ km)
Ceiling: 1600 feet AGL
Clouds: scattered clouds at 500 feet AGL
broken clouds at 1600 feet AGL
broken clouds at 3200 feet AGL
Weather: -RA  (light rain)

METAR text: RCMQ 232030Z 06008KT 8000 SCT006 BKN020 BKN040 14/12 Q1016 RMK A3003
Conditions at: RCMQ (WUCHIA OBSERVATO, TW) observed 2030 UTC 23 March 2019
Temperature: 14.0°C (57°F)
Dewpoint: 12.0°C (54°F) [RH = 88%]
Pressure (altimeter): 30.00 inches Hg (1016.0 mb)
Winds: from the ENE (60 degrees) at 9 MPH (8 knots; 4.1 m/s)
Visibility: 5 miles ( 8 km)
Ceiling: 2000 feet AGL
Clouds: scattered clouds at 600 feet AGL
broken clouds at 2000 feet AGL
broken clouds at 4000 feet AGL
Weather: no significant weather observed at this time

METAR text: RCMQ 232000Z 02010KT 9999 SCT006 BKN020 BKN040 15/11 Q1017 RMK A3004
Conditions at: RCMQ (WUCHIA OBSERVATO, TW) observed 2000 UTC 23 March 2019
Temperature: 15.0°C (59°F)
Dewpoint: 11.0°C (52°F) [RH = 77%]
Pressure (altimeter): 30.03 inches Hg (1017.0 mb)
Winds: from the NNE (20 degrees) at 12 MPH (10 knots; 5.1 m/s)
Visibility: 6 or more miles (10+ km)
Ceiling: 2000 feet AGL
Clouds: scattered clouds at 600 feet AGL
broken clouds at 2000 feet AGL
broken clouds at 4000 feet AGL
Weather: no significant weather observed at this time

METAR text: RCMQ 231900Z 36010KT 9999 SCT006 BKN020 BKN040 15/11 Q1017 RMK A3004
Conditions at: RCMQ (WUCHIA OBSERVATO, TW) observed 1900 UTC 23 March 2019
Temperature: 15.0°C (59°F)
Dewpoint: 11.0°C (52°F) [RH = 77%]
Pressure (altimeter): 30.03 inches Hg (1017.0 mb)
Winds: from the N (360 degrees) at 12 MPH (10 knots; 5.1 m/s)
Visibility: 6 or more miles (10+ km)
Ceiling: 2000 feet AGL
Clouds: scattered clouds at 600 feet AGL
broken clouds at 2000 feet AGL
broken clouds at 4000 feet AGL
Weather: no significant weather observed at this time

METAR text: RCMQ 231800Z 34007KT 9999 FEW006 SCT020 BKN040 15/11 Q1017 RMK A3005
Conditions at: RCMQ (WUCHIA OBSERVATO, TW) observed 1800 UTC 23 March 2019
Temperature: 15.0°C (59°F)
Dewpoint: 11.0°C (52°F) [RH = 77%]
Pressure (altimeter): 30.03 inches Hg (1017.0 mb)
Winds: from the NNW (340 degrees) at 8 MPH (7 knots; 3.6 m/s)
Visibility: 6 or more miles (10+ km)
Ceiling: 4000 feet AGL
Clouds: few clouds at 600 feet AGL
scattered clouds at 2000 feet AGL
broken clouds at 4000 feet AGL
Weather: no significant weather observed at this time

METAR text: RCMQ 231700Z 02008KT 9999 FEW006 SCT020 BKN040 15/11 Q1017 RMK A3004
Conditions at: RCMQ (WUCHIA OBSERVATO, TW) observed 1700 UTC 23 March 2019
Temperature: 15.0°C (59°F)
Dewpoint: 11.0°C (52°F) [RH = 77%]
Pressure (altimeter): 30.03 inches Hg (1017.0 mb)
Winds: from the NNE (20 degrees) at 9 MPH (8 knots; 4.1 m/s)
Visibility: 6 or more miles (10+ km)
Ceiling: 4000 feet AGL
Clouds: few clouds at 600 feet AGL
scattered clouds at 2000 feet AGL
broken clouds at 4000 feet AGL
Weather: no significant weather observed at this time

METAR text: RCMQ 231600Z 04008KT 9999 FEW006 SCT020 BKN040 15/11 Q1017 RMK A3006
Conditions at: RCMQ (WUCHIA OBSERVATO, TW) observed 1600 UTC 23 March 2019
Temperature: 15.0°C (59°F)
Dewpoint: 11.0°C (52°F) [RH = 77%]
Pressure (altimeter): 30.03 inches Hg (1017.0 mb)
Winds: from the NE (40 degrees) at 9 MPH (8 knots; 4.1 m/s)
Visibility: 6 or more miles (10+ km)
Ceiling: 4000 feet AGL
Clouds: few clouds at 600 feet AGL
scattered clouds at 2000 feet AGL
broken clouds at 4000 feet AGL
Weather: no significant weather observed at this time

METAR text: RCMQ 231500Z 02013G24KT 9999 SCT006 BKN020 BKN040 15/10 Q1018 RMK A3007
Conditions at: RCMQ (WUCHIA OBSERVATO, TW) observed 1500 UTC 23 March 2019
Temperature: 15.0°C (59°F)
Dewpoint: 10.0°C (50°F) [RH = 72%]
Pressure (altimeter): 30.06 inches Hg (1018.0 mb)
Winds: from the NNE (20 degrees) at 15 MPH (13 knots; 6.7 m/s)
gusting to 28 MPH (24 knots; 12.3 m/s)
Visibility: 6 or more miles (10+ km)
Ceiling: 2000 feet AGL
Clouds: scattered clouds at 600 feet AGL
broken clouds at 2000 feet AGL
broken clouds at 4000 feet AGL
Weather: no significant weather observed at this time

METAR text: RCMQ 231400Z 03018G28KT 9999 SCT008 BKN020 BKN040 15/11 Q1018 NOSIG RMK A3008
Conditions at: RCMQ (WUCHIA OBSERVATO, TW) observed 1400 UTC 23 March 2019
Temperature: 15.0°C (59°F)
Dewpoint: 11.0°C (52°F) [RH = 77%]
Pressure (altimeter): 30.06 inches Hg (1018.0 mb)
Winds: from the NNE (30 degrees) at 21 MPH (18 knots; 9.3 m/s)
gusting to 32 MPH (28 knots; 14.4 m/s)
Visibility: 6 or more miles (10+ km)
Ceiling: 2000 feet AGL
Clouds: scattered clouds at 800 feet AGL
broken clouds at 2000 feet AGL
broken clouds at 4000 feet AGL
Weather: no significant weather observed at this time

METAR text: RCMQ 231330Z 02018G28KT 9999 SCT008 BKN020 BKN040 15/11 Q1018 NOSIG RMK A3009
Conditions at: RCMQ (WUCHIA OBSERVATO, TW) observed 1330 UTC 23 March 2019
Temperature: 15.0°C (59°F)
Dewpoint: 11.0°C (52°F) [RH = 77%]
Pressure (altimeter): 30.06 inches Hg (1018.0 mb)
Winds: from the NNE (20 degrees) at 21 MPH (18 knots; 9.3 m/s)
gusting to 32 MPH (28 knots; 14.4 m/s)
Visibility: 6 or more miles (10+ km)
Ceiling: 2000 feet AGL
Clouds: scattered clouds at 800 feet AGL
broken clouds at 2000 feet AGL
broken clouds at 4000 feet AGL
Weather: no significant weather observed at this time

METAR text: RCMQ 231300Z 02019G29KT 9999 SCT008 BKN020 BKN040 15/11 Q1018 NOSIG RMK A3009
Conditions at: RCMQ (WUCHIA OBSERVATO, TW) observed 1300 UTC 23 March 2019
Temperature: 15.0°C (59°F)
Dewpoint: 11.0°C (52°F) [RH = 77%]
Pressure (altimeter): 30.06 inches Hg (1018.0 mb)
Winds: from the NNE (20 degrees) at 22 MPH (19 knots; 9.8 m/s)
gusting to 33 MPH (29 knots; 14.9 m/s)
Visibility: 6 or more miles (10+ km)
Ceiling: 2000 feet AGL
Clouds: scattered clouds at 800 feet AGL
broken clouds at 2000 feet AGL
broken clouds at 4000 feet AGL
Weather: no significant weather observed at this time

METAR text: RCMQ 231230Z 01021G31KT 9999 SCT008 BKN020 BKN040 15/11 Q1018 NOSIG RMK A3007
Conditions at: RCMQ (WUCHIA OBSERVATO, TW) observed 1230 UTC 23 March 2019
Temperature: 15.0°C (59°F)
Dewpoint: 11.0°C (52°F) [RH = 77%]
Pressure (altimeter): 30.06 inches Hg (1018.0 mb)
Winds: from the N (10 degrees) at 24 MPH (21 knots; 10.8 m/s)
gusting to 36 MPH (31 knots; 15.9 m/s)
Visibility: 6 or more miles (10+ km)
Ceiling: 2000 feet AGL
Clouds: scattered clouds at 800 feet AGL
broken clouds at 2000 feet AGL
broken clouds at 4000 feet AGL
Weather: no significant weather observed at this time

METAR text: RCMQ 231200Z 01018G28KT 9999 SCT006 BKN020 BKN040 15/11 Q1017 NOSIG RMK A3005
Conditions at: RCMQ (WUCHIA OBSERVATO, TW) observed 1200 UTC 23 March 2019
Temperature: 15.0°C (59°F)
Dewpoint: 11.0°C (52°F) [RH = 77%]
Pressure (altimeter): 30.03 inches Hg (1017.0 mb)
Winds: from the N (10 degrees) at 21 MPH (18 knots; 9.3 m/s)
gusting to 32 MPH (28 knots; 14.4 m/s)
Visibility: 6 or more miles (10+ km)
Ceiling: 2000 feet AGL
Clouds: scattered clouds at 600 feet AGL
broken clouds at 2000 feet AGL
broken clouds at 4000 feet AGL
Weather: no significant weather observed at this time

METAR text: RCMQ 231130Z 01013KT 9999 SCT006 BKN020 BKN040 15/11 Q1017 NOSIG RMK A3005
Conditions at: RCMQ (WUCHIA OBSERVATO, TW) observed 1130 UTC 23 March 2019
Temperature: 15.0°C (59°F)
Dewpoint: 11.0°C (52°F) [RH = 77%]
Pressure (altimeter): 30.03 inches Hg (1017.0 mb)
Winds: from the N (10 degrees) at 15 MPH (13 knots; 6.7 m/s)
Visibility: 6 or more miles (10+ km)
Ceiling: 2000 feet AGL
Clouds: scattered clouds at 600 feet AGL
broken clouds at 2000 feet AGL
broken clouds at 4000 feet AGL
Weather: no significant weather observed at this time

METAR text: RCMQ 231100Z 02016G26KT 9999 SCT006 BKN020 BKN040 15/11 Q1017 NOSIG RMK A3004
Conditions at: RCMQ (WUCHIA OBSERVATO, TW) observed 1100 UTC 23 March 2019
Temperature: 15.0°C (59°F)
Dewpoint: 11.0°C (52°F) [RH = 77%]
Pressure (altimeter): 30.03 inches Hg (1017.0 mb)
Winds: from the NNE (20 degrees) at 18 MPH (16 knots; 8.2 m/s)
gusting to 30 MPH (26 knots; 13.4 m/s)
Visibility: 6 or more miles (10+ km)
Ceiling: 2000 feet AGL
Clouds: scattered clouds at 600 feet AGL
broken clouds at 2000 feet AGL
broken clouds at 4000 feet AGL
Weather: no significant weather observed at this time

METAR text: RCMQ 231030Z 02015G25KT 9999 SCT006 BKN020 BKN040 15/12 Q1017 NOSIG RMK A3004
Conditions at: RCMQ (WUCHIA OBSERVATO, TW) observed 1030 UTC 23 March 2019
Temperature: 15.0°C (59°F)
Dewpoint: 12.0°C (54°F) [RH = 82%]
Pressure (altimeter): 30.03 inches Hg (1017.0 mb)
Winds: from the NNE (20 degrees) at 17 MPH (15 knots; 7.7 m/s)
gusting to 29 MPH (25 knots; 12.9 m/s)
Visibility: 6 or more miles (10+ km)
Ceiling: 2000 feet AGL
Clouds: scattered clouds at 600 feet AGL
broken clouds at 2000 feet AGL
broken clouds at 4000 feet AGL
Weather: no significant weather observed at this time

METAR text: RCMQ 231000Z 02017G27KT 9999 SCT006 BKN020 BKN040 15/12 Q1016 NOSIG RMK A3003
Conditions at: RCMQ (WUCHIA OBSERVATO, TW) observed 1000 UTC 23 March 2019
Temperature: 15.0°C (59°F)
Dewpoint: 12.0°C (54°F) [RH = 82%]
Pressure (altimeter): 30.00 inches Hg (1016.0 mb)
Winds: from the NNE (20 degrees) at 20 MPH (17 knots; 8.7 m/s)
gusting to 31 MPH (27 knots; 13.9 m/s)
Visibility: 6 or more miles (10+ km)
Ceiling: 2000 feet AGL
Clouds: scattered clouds at 600 feet AGL
broken clouds at 2000 feet AGL
broken clouds at 4000 feet AGL
Weather: no significant weather observed at this time

METAR text: RCMQ 230930Z 02016G26KT 9999 FEW008 BKN020 BKN040 15/13 Q1017 NOSIG RMK A3004
Conditions at: RCMQ (WUCHIA OBSERVATO, TW) observed 0930 UTC 23 March 2019
Temperature: 15.0°C (59°F)
Dewpoint: 13.0°C (55°F) [RH = 88%]
Pressure (altimeter): 30.03 inches Hg (1017.0 mb)
Winds: from the NNE (20 degrees) at 18 MPH (16 knots; 8.2 m/s)
gusting to 30 MPH (26 knots; 13.4 m/s)
Visibility: 6 or more miles (10+ km)
Ceiling: 2000 feet AGL
Clouds: few clouds at 800 feet AGL
broken clouds at 2000 feet AGL
broken clouds at 4000 feet AGL
Weather: no significant weather observed at this time

METAR text: RCMQ 230900Z 02018G28KT 9999 FEW008 BKN020 BKN040 16/13 Q1016 NOSIG RMK A3003
Conditions at: RCMQ (WUCHIA OBSERVATO, TW) observed 0900 UTC 23 March 2019
Temperature: 16.0°C (61°F)
Dewpoint: 13.0°C (55°F) [RH = 82%]
Pressure (altimeter): 30.00 inches Hg (1016.0 mb)
Winds: from the NNE (20 degrees) at 21 MPH (18 knots; 9.3 m/s)
gusting to 32 MPH (28 knots; 14.4 m/s)
Visibility: 6 or more miles (10+ km)
Ceiling: 2000 feet AGL
Clouds: few clouds at 800 feet AGL
broken clouds at 2000 feet AGL
broken clouds at 4000 feet AGL
Weather: no significant weather observed at this time

METAR text: RCMQ 230836Z 02016G26KT 9999 VCSH FEW008 BKN020 BKN040 16/13 Q1016 NOSIG RMK A3002 VCSH NE
Conditions at: RCMQ (WUCHIA OBSERVATO, TW) observed 0836 UTC 23 March 2019
Temperature: 16.0°C (61°F)
Dewpoint: 13.0°C (55°F) [RH = 82%]
Pressure (altimeter): 30.00 inches Hg (1016.0 mb)
Winds: from the NNE (20 degrees) at 18 MPH (16 knots; 8.2 m/s)
gusting to 30 MPH (26 knots; 13.4 m/s)
Visibility: 6 or more miles (10+ km)
Ceiling: 2000 feet AGL
Clouds: few clouds at 800 feet AGL
broken clouds at 2000 feet AGL
broken clouds at 4000 feet AGL
Weather: VCSH  (showers in vicinity)

METAR text: RCMQ 230830Z 02016G26KT 9999 -RA FEW008 BKN020 BKN040 16/13 Q1016 NOSIG RMK A3002
Conditions at: RCMQ (WUCHIA OBSERVATO, TW) observed 0830 UTC 23 March 2019
Temperature: 16.0°C (61°F)
Dewpoint: 13.0°C (55°F) [RH = 82%]
Pressure (altimeter): 30.00 inches Hg (1016.0 mb)
Winds: from the NNE (20 degrees) at 18 MPH (16 knots; 8.2 m/s)
gusting to 30 MPH (26 knots; 13.4 m/s)
Visibility: 6 or more miles (10+ km)
Ceiling: 2000 feet AGL
Clouds: few clouds at 800 feet AGL
broken clouds at 2000 feet AGL
broken clouds at 4000 feet AGL
Weather: -RA  (light rain)

METAR text: RCMQ 230807Z 02016G28KT 9000 -RA FEW008 BKN020 BKN040 16/13 Q1016 NOSIG RMK A3002
Conditions at: RCMQ (WUCHIA OBSERVATO, TW) observed 0807 UTC 23 March 2019
Temperature: 16.0°C (61°F)
Dewpoint: 13.0°C (55°F) [RH = 82%]
Pressure (altimeter): 30.00 inches Hg (1016.0 mb)
Winds: from the NNE (20 degrees) at 18 MPH (16 knots; 8.2 m/s)
gusting to 32 MPH (28 knots; 14.4 m/s)
Visibility: 6 miles ( 9 km)
Ceiling: 2000 feet AGL
Clouds: few clouds at 800 feet AGL
broken clouds at 2000 feet AGL
broken clouds at 4000 feet AGL
Weather: -RA  (light rain)

METAR text: RCMQ 230800Z 02018G28KT 9000 VCSH FEW008 BKN020 BKN040 15/14 Q1016 NOSIG RMK A3001 VCSH E
Conditions at: RCMQ (WUCHIA OBSERVATO, TW) observed 0800 UTC 23 March 2019
Temperature: 15.0°C (59°F)
Dewpoint: 14.0°C (57°F) [RH = 94%]
Pressure (altimeter): 30.00 inches Hg (1016.0 mb)
Winds: from the NNE (20 degrees) at 21 MPH (18 knots; 9.3 m/s)
gusting to 32 MPH (28 knots; 14.4 m/s)
Visibility: 6 miles ( 9 km)
Ceiling: 2000 feet AGL
Clouds: few clouds at 800 feet AGL
broken clouds at 2000 feet AGL
broken clouds at 4000 feet AGL
Weather: VCSH  (showers in vicinity)

METAR text: RCMQ 230730Z 02019G29KT 9999 FEW008 BKN020 BKN040 16/14 Q1016 NOSIG RMK A3001
Conditions at: RCMQ (WUCHIA OBSERVATO, TW) observed 0730 UTC 23 March 2019
Temperature: 16.0°C (61°F)
Dewpoint: 14.0°C (57°F) [RH = 88%]
Pressure (altimeter): 30.00 inches Hg (1016.0 mb)
Winds: from the NNE (20 degrees) at 22 MPH (19 knots; 9.8 m/s)
gusting to 33 MPH (29 knots; 14.9 m/s)
Visibility: 6 or more miles (10+ km)
Ceiling: 2000 feet AGL
Clouds: few clouds at 800 feet AGL
broken clouds at 2000 feet AGL
broken clouds at 4000 feet AGL
Weather: no significant weather observed at this time

METAR text: RCMQ 230700Z 02017G28KT 9999 FEW008 BKN020 BKN040 16/14 Q1016 NOSIG RMK A3002
Conditions at: RCMQ (WUCHIA OBSERVATO, TW) observed 0700 UTC 23 March 2019
Temperature: 16.0°C (61°F)
Dewpoint: 14.0°C (57°F) [RH = 88%]
Pressure (altimeter): 30.00 inches Hg (1016.0 mb)
Winds: from the NNE (20 degrees) at 20 MPH (17 knots; 8.7 m/s)
gusting to 32 MPH (28 knots; 14.4 m/s)
Visibility: 6 or more miles (10+ km)
Ceiling: 2000 feet AGL
Clouds: few clouds at 800 feet AGL
broken clouds at 2000 feet AGL
broken clouds at 4000 feet AGL
Weather: no significant weather observed at this time

METAR text: RCMQ 230630Z 02018G28KT 9999 SCT008 BKN020 BKN040 16/14 Q1016 NOSIG RMK A3003
Conditions at: RCMQ (WUCHIA OBSERVATO, TW) observed 0630 UTC 23 March 2019
Temperature: 16.0°C (61°F)
Dewpoint: 14.0°C (57°F) [RH = 88%]
Pressure (altimeter): 30.00 inches Hg (1016.0 mb)
Winds: from the NNE (20 degrees) at 21 MPH (18 knots; 9.3 m/s)
gusting to 32 MPH (28 knots; 14.4 m/s)
Visibility: 6 or more miles (10+ km)
Ceiling: 2000 feet AGL
Clouds: scattered clouds at 800 feet AGL
broken clouds at 2000 feet AGL
broken clouds at 4000 feet AGL
Weather: no significant weather observed at this time

METAR text: RCMQ 230600Z 01017G27KT 9999 SCT008 BKN020 BKN040 17/14 Q1017 NOSIG RMK A3004
Conditions at: RCMQ (WUCHIA OBSERVATO, TW) observed 0600 UTC 23 March 2019
Temperature: 17.0°C (63°F)
Dewpoint: 14.0°C (57°F) [RH = 82%]
Pressure (altimeter): 30.03 inches Hg (1017.0 mb)
Winds: from the N (10 degrees) at 20 MPH (17 knots; 8.7 m/s)
gusting to 31 MPH (27 knots; 13.9 m/s)
Visibility: 6 or more miles (10+ km)
Ceiling: 2000 feet AGL
Clouds: scattered clouds at 800 feet AGL
broken clouds at 2000 feet AGL
broken clouds at 4000 feet AGL
Weather: no significant weather observed at this time

METAR text: RCMQ 230530Z 01015G25KT 9999 FEW008 BKN025 BKN040 18/14 Q1017 NOSIG RMK A3004
Conditions at: RCMQ (WUCHIA OBSERVATO, TW) observed 0530 UTC 23 March 2019
Temperature: 18.0°C (64°F)
Dewpoint: 14.0°C (57°F) [RH = 77%]
Pressure (altimeter): 30.03 inches Hg (1017.0 mb)
Winds: from the N (10 degrees) at 17 MPH (15 knots; 7.7 m/s)
gusting to 29 MPH (25 knots; 12.9 m/s)
Visibility: 6 or more miles (10+ km)
Ceiling: 2500 feet AGL
Clouds: few clouds at 800 feet AGL
broken clouds at 2500 feet AGL
broken clouds at 4000 feet AGL
Weather: no significant weather observed at this time

METAR text: RCMQ 230500Z 36013KT 9999 FEW008 BKN025 BKN040 19/15 Q1017 NOSIG RMK A3004
Conditions at: RCMQ (WUCHIA OBSERVATO, TW) observed 0500 UTC 23 March 2019
Temperature: 19.0°C (66°F)
Dewpoint: 15.0°C (59°F) [RH = 78%]
Pressure (altimeter): 30.03 inches Hg (1017.0 mb)
Winds: from the N (360 degrees) at 15 MPH (13 knots; 6.7 m/s)
Visibility: 6 or more miles (10+ km)
Ceiling: 2500 feet AGL
Clouds: few clouds at 800 feet AGL
broken clouds at 2500 feet AGL
broken clouds at 4000 feet AGL
Weather: no significant weather observed at this time

METAR text: RCMQ 230430Z 03008KT 9999 FEW008 BKN016 BKN040 19/15 Q1017 NOSIG RMK A3005
Conditions at: RCMQ (WUCHIA OBSERVATO, TW) observed 0430 UTC 23 March 2019
Temperature: 19.0°C (66°F)
Dewpoint: 15.0°C (59°F) [RH = 78%]
Pressure (altimeter): 30.03 inches Hg (1017.0 mb)
Winds: from the NNE (30 degrees) at 9 MPH (8 knots; 4.1 m/s)
Visibility: 6 or more miles (10+ km)
Ceiling: 1600 feet AGL
Clouds: few clouds at 800 feet AGL
broken clouds at 1600 feet AGL
broken clouds at 4000 feet AGL
Weather: no significant weather observed at this time

METAR text: RCMQ 230400Z 03013KT 9999 FEW008 BKN016 BKN040 17/14 Q1018 NOSIG RMK A3006
Conditions at: RCMQ (WUCHIA OBSERVATO, TW) observed 0400 UTC 23 March 2019
Temperature: 17.0°C (63°F)
Dewpoint: 14.0°C (57°F) [RH = 82%]
Pressure (altimeter): 30.06 inches Hg (1018.0 mb)
Winds: from the NNE (30 degrees) at 15 MPH (13 knots; 6.7 m/s)
Visibility: 6 or more miles (10+ km)
Ceiling: 1600 feet AGL
Clouds: few clouds at 800 feet AGL
broken clouds at 1600 feet AGL
broken clouds at 4000 feet AGL
Weather: no significant weather observed at this time

METAR text: RCMQ 230330Z 02015G26KT 9999 FEW006 BKN016 BKN040 17/14 Q1018 NOSIG RMK A3007
Conditions at: RCMQ (WUCHIA OBSERVATO, TW) observed 0330 UTC 23 March 2019
Temperature: 17.0°C (63°F)
Dewpoint: 14.0°C (57°F) [RH = 82%]
Pressure (altimeter): 30.06 inches Hg (1018.0 mb)
Winds: from the NNE (20 degrees) at 17 MPH (15 knots; 7.7 m/s)
gusting to 30 MPH (26 knots; 13.4 m/s)
Visibility: 6 or more miles (10+ km)
Ceiling: 1600 feet AGL
Clouds: few clouds at 600 feet AGL
broken clouds at 1600 feet AGL
broken clouds at 4000 feet AGL
Weather: no significant weather observed at this time

METAR text: RCMQ 230300Z 01015G25KT 9999 FEW006 BKN016 BKN040 18/14 Q1018 NOSIG RMK A3008
Conditions at: RCMQ (WUCHIA OBSERVATO, TW) observed 0300 UTC 23 March 2019
Temperature: 18.0°C (64°F)
Dewpoint: 14.0°C (57°F) [RH = 77%]
Pressure (altimeter): 30.06 inches Hg (1018.0 mb)
Winds: from the N (10 degrees) at 17 MPH (15 knots; 7.7 m/s)
gusting to 29 MPH (25 knots; 12.9 m/s)
Visibility: 6 or more miles (10+ km)
Ceiling: 1600 feet AGL
Clouds: few clouds at 600 feet AGL
broken clouds at 1600 feet AGL
broken clouds at 4000 feet AGL
Weather: no significant weather observed at this time

METAR text: RCMQ 230230Z 02017G27KT 9999 FEW006 SCT016 BKN040 18/14 Q1018 NOSIG RMK A3008
Conditions at: RCMQ (WUCHIA OBSERVATO, TW) observed 0230 UTC 23 March 2019
Temperature: 18.0°C (64°F)
Dewpoint: 14.0°C (57°F) [RH = 77%]
Pressure (altimeter): 30.06 inches Hg (1018.0 mb)
Winds: from the NNE (20 degrees) at 20 MPH (17 knots; 8.7 m/s)
gusting to 31 MPH (27 knots; 13.9 m/s)
Visibility: 6 or more miles (10+ km)
Ceiling: 4000 feet AGL
Clouds: few clouds at 600 feet AGL
scattered clouds at 1600 feet AGL
broken clouds at 4000 feet AGL
Weather: no significant weather observed at this time

METAR text: RCMQ 230218Z 02018G28KT 9999 VCSH FEW006 SCT016 BKN040 17/14 Q1018 NOSIG RMK A3008 VCSH SW
Conditions at: RCMQ (WUCHIA OBSERVATO, TW) observed 0218 UTC 23 March 2019
Temperature: 17.0°C (63°F)
Dewpoint: 14.0°C (57°F) [RH = 82%]
Pressure (altimeter): 30.06 inches Hg (1018.0 mb)
Winds: from the NNE (20 degrees) at 21 MPH (18 knots; 9.3 m/s)
gusting to 32 MPH (28 knots; 14.4 m/s)
Visibility: 6 or more miles (10+ km)
Ceiling: 4000 feet AGL
Clouds: few clouds at 600 feet AGL
scattered clouds at 1600 feet AGL
broken clouds at 4000 feet AGL
Weather: VCSH  (showers in vicinity)

METAR text: RCMQ 230200Z 01016G26KT 9999 -RA SCT006 BKN016 BKN030 16/15 Q1018 NOSIG RMK A3008 APCH CLD SCT006
Conditions at: RCMQ (WUCHIA OBSERVATO, TW) observed 0200 UTC 23 March 2019
Temperature: 16.0°C (61°F)
Dewpoint: 15.0°C (59°F) [RH = 94%]
Pressure (altimeter): 30.06 inches Hg (1018.0 mb)
Winds: from the N (10 degrees) at 18 MPH (16 knots; 8.2 m/s)
gusting to 30 MPH (26 knots; 13.4 m/s)
Visibility: 6 or more miles (10+ km)
Ceiling: 1600 feet AGL
Clouds: scattered clouds at 600 feet AGL
broken clouds at 1600 feet AGL
broken clouds at 3000 feet AGL
Weather: -RA  (light rain)

METAR text: RCMQ 230130Z 01015KT 9999 -RA SCT006 BKN016 BKN030 16/15 Q1018 NOSIG RMK A3008 APCH CLD SCT006
Conditions at: RCMQ (WUCHIA OBSERVATO, TW) observed 0130 UTC 23 March 2019
Temperature: 16.0°C (61°F)
Dewpoint: 15.0°C (59°F) [RH = 94%]
Pressure (altimeter): 30.06 inches Hg (1018.0 mb)
Winds: from the N (10 degrees) at 17 MPH (15 knots; 7.7 m/s)
Visibility: 6 or more miles (10+ km)
Ceiling: 1600 feet AGL
Clouds: scattered clouds at 600 feet AGL
broken clouds at 1600 feet AGL
broken clouds at 3000 feet AGL
Weather: -RA  (light rain)

METAR text: RCMQ 230100Z 36009KT 9999 -RA FEW006 BKN016 BKN032 16/15 Q1018 NOSIG RMK A3007
Conditions at: RCMQ (WUCHIA OBSERVATO, TW) observed 0100 UTC 23 March 2019
Temperature: 16.0°C (61°F)
Dewpoint: 15.0°C (59°F) [RH = 94%]
Pressure (altimeter): 30.06 inches Hg (1018.0 mb)
Winds: from the N (360 degrees) at 10 MPH (9 knots; 4.6 m/s)
Visibility: 6 or more miles (10+ km)
Ceiling: 1600 feet AGL
Clouds: few clouds at 600 feet AGL
broken clouds at 1600 feet AGL
broken clouds at 3200 feet AGL
Weather: -RA  (light rain)

METAR text: RCMQ 230030Z 02011KT 9999 -RA SCT004 BKN016 BKN032 16/15 Q1018 NOSIG RMK A3007 APCH CLD SCT004
Conditions at: RCMQ (WUCHIA OBSERVATO, TW) observed 0030 UTC 23 March 2019
Temperature: 16.0°C (61°F)
Dewpoint: 15.0°C (59°F) [RH = 94%]
Pressure (altimeter): 30.06 inches Hg (1018.0 mb)
Winds: from the NNE (20 degrees) at 13 MPH (11 knots; 5.7 m/s)
Visibility: 6 or more miles (10+ km)
Ceiling: 1600 feet AGL
Clouds: scattered clouds at 400 feet AGL
broken clouds at 1600 feet AGL
broken clouds at 3200 feet AGL
Weather: -RA  (light rain)

METAR text: RCMQ 230015Z 01010KT 9999 -RA SCT004 BKN016 BKN032 16/14 Q1018 NOSIG RMK A3006 APCH CLD SCT004
Conditions at: RCMQ (WUCHIA OBSERVATO, TW) observed 0015 UTC 23 March 2019
Temperature: 16.0°C (61°F)
Dewpoint: 14.0°C (57°F) [RH = 88%]
Pressure (altimeter): 30.06 inches Hg (1018.0 mb)
Winds: from the N (10 degrees) at 12 MPH (10 knots; 5.1 m/s)
Visibility: 6 or more miles (10+ km)
Ceiling: 1600 feet AGL
Clouds: scattered clouds at 400 feet AGL
broken clouds at 1600 feet AGL
broken clouds at 3200 feet AGL
Weather: -RA  (light rain)

METAR text: RCMQ 230000Z 02011KT 9999 VCSH SCT004 BKN016 BKN032 16/14 Q1018 NOSIG RMK A3006 APCH CLD SCT004 VCSH NW
Conditions at: RCMQ (WUCHIA OBSERVATO, TW) observed 0000 UTC 23 March 2019
Temperature: 16.0°C (61°F)
Dewpoint: 14.0°C (57°F) [RH = 88%]
Pressure (altimeter): 30.06 inches Hg (1018.0 mb)
Winds: from the NNE (20 degrees) at 13 MPH (11 knots; 5.7 m/s)
Visibility: 6 or more miles (10+ km)
Ceiling: 1600 feet AGL
Clouds: scattered clouds at 400 feet AGL
broken clouds at 1600 feet AGL
broken clouds at 3200 feet AGL
Weather: VCSH  (showers in vicinity)

METAR text: RCMQ 222341Z 02013KT 9999 VCSH SCT004 BKN016 BKN032 16/14 Q1018 NOSIG RMK A3006 APCH CLD SCT004 VCSH NW
Conditions at: RCMQ (WUCHIA OBSERVATO, TW) observed 2341 UTC 22 March 2019
Temperature: 16.0°C (61°F)
Dewpoint: 14.0°C (57°F) [RH = 88%]
Pressure (altimeter): 30.06 inches Hg (1018.0 mb)
Winds: from the NNE (20 degrees) at 15 MPH (13 knots; 6.7 m/s)
Visibility: 6 or more miles (10+ km)
Ceiling: 1600 feet AGL
Clouds: scattered clouds at 400 feet AGL
broken clouds at 1600 feet AGL
broken clouds at 3200 feet AGL
Weather: VCSH  (showers in vicinity)

METAR text: RCMQ 222330Z 01013KT 9000 -RA SCT004 BKN014 BKN025 16/14 Q1018 BECMG BKN016 RMK A3006 APCH CLD SCT004
Conditions at: RCMQ (WUCHIA OBSERVATO, TW) observed 2330 UTC 22 March 2019
Temperature: 16.0°C (61°F)
Dewpoint: 14.0°C (57°F) [RH = 88%]
Pressure (altimeter): 30.06 inches Hg (1018.0 mb)
Winds: from the N (10 degrees) at 15 MPH (13 knots; 6.7 m/s)
Visibility: 6 miles ( 9 km)
Ceiling: 1400 feet AGL
Clouds: scattered clouds at 400 feet AGL
broken clouds at 1400 feet AGL
broken clouds at 2500 feet AGL
Weather: -RA  (light rain)

METAR text: RCMQ 222300Z 01014KT 8000 -RA SCT004 BKN012 BKN021 16/14 Q1017 NOSIG RMK A3005
Conditions at: RCMQ (WUCHIA OBSERVATO, TW) observed 2300 UTC 22 March 2019
Temperature: 16.0°C (61°F)
Dewpoint: 14.0°C (57°F) [RH = 88%]
Pressure (altimeter): 30.03 inches Hg (1017.0 mb)
Winds: from the N (10 degrees) at 16 MPH (14 knots; 7.2 m/s)
Visibility: 5 miles ( 8 km)
Ceiling: 1200 feet AGL
Clouds: scattered clouds at 400 feet AGL
broken clouds at 1200 feet AGL
broken clouds at 2100 feet AGL
Weather: -RA  (light rain)

METAR text: RCMQ 222230Z 02013KT 7000 -RA SCT004 BKN012 BKN021 16/15 Q1017 NOSIG RMK A3005
Conditions at: RCMQ (WUCHIA OBSERVATO, TW) observed 2230 UTC 22 March 2019
Temperature: 16.0°C (61°F)
Dewpoint: 15.0°C (59°F) [RH = 94%]
Pressure (altimeter): 30.03 inches Hg (1017.0 mb)
Winds: from the NNE (20 degrees) at 15 MPH (13 knots; 6.7 m/s)
Visibility: 4 miles ( 7 km)
Ceiling: 1200 feet AGL
Clouds: scattered clouds at 400 feet AGL
broken clouds at 1200 feet AGL
broken clouds at 2100 feet AGL
Weather: -RA  (light rain)

METAR text: RCMQ 222200Z 02015KT 7000 -RA SCT005 BKN012 BKN021 16/15 Q1017 BECMG 5000 -RA BR BKN008 RMK A3004 RA AMT 0.5MM
Conditions at: RCMQ (WUCHIA OBSERVATO, TW) observed 2200 UTC 22 March 2019
Temperature: 16.0°C (61°F)
Dewpoint: 15.0°C (59°F) [RH = 94%]
Pressure (altimeter): 30.03 inches Hg (1017.0 mb)
Winds: from the NNE (20 degrees) at 17 MPH (15 knots; 7.7 m/s)
Visibility: 4 miles ( 7 km)
Ceiling: 1200 feet AGL
Clouds: scattered clouds at 500 feet AGL
broken clouds at 1200 feet AGL
broken clouds at 2100 feet AGL
Weather: -RA  (light rain)

METAR text: RCMQ 222130Z 01015G25KT 8000 -RA SCT005 BKN012 BKN025 16/14 Q1016 NOSIG RMK A3002
Conditions at: RCMQ (WUCHIA OBSERVATO, TW) observed 2130 UTC 22 March 2019
Temperature: 16.0°C (61°F)
Dewpoint: 14.0°C (57°F) [RH = 88%]
Pressure (altimeter): 30.00 inches Hg (1016.0 mb)
Winds: from the N (10 degrees) at 17 MPH (15 knots; 7.7 m/s)
gusting to 29 MPH (25 knots; 12.9 m/s)
Visibility: 5 miles ( 8 km)
Ceiling: 1200 feet AGL
Clouds: scattered clouds at 500 feet AGL
broken clouds at 1200 feet AGL
broken clouds at 2500 feet AGL
Weather: -RA  (light rain)

METAR text: RCMQ 222115Z 02014G24KT 8000 -RA SCT005 BKN012 BKN025 17/14 Q1016 NOSIG RMK A3001
Conditions at: RCMQ (WUCHIA OBSERVATO, TW) observed 2115 UTC 22 March 2019
Temperature: 17.0°C (63°F)
Dewpoint: 14.0°C (57°F) [RH = 82%]
Pressure (altimeter): 30.00 inches Hg (1016.0 mb)
Winds: from the NNE (20 degrees) at 16 MPH (14 knots; 7.2 m/s)
gusting to 28 MPH (24 knots; 12.3 m/s)
Visibility: 5 miles ( 8 km)
Ceiling: 1200 feet AGL
Clouds: scattered clouds at 500 feet AGL
broken clouds at 1200 feet AGL
broken clouds at 2500 feet AGL
Weather: -RA  (light rain)

METAR text: RCMQ 222100Z 02014KT 9000 SCT006 BKN016 BKN032 17/14 Q1016 NOSIG RMK A3001
Conditions at: RCMQ (WUCHIA OBSERVATO, TW) observed 2100 UTC 22 March 2019
Temperature: 17.0°C (63°F)
Dewpoint: 14.0°C (57°F) [RH = 82%]
Pressure (altimeter): 30.00 inches Hg (1016.0 mb)
Winds: from the NNE (20 degrees) at 16 MPH (14 knots; 7.2 m/s)
Visibility: 6 miles ( 9 km)
Ceiling: 1600 feet AGL
Clouds: scattered clouds at 600 feet AGL
broken clouds at 1600 feet AGL
broken clouds at 3200 feet AGL
Weather: no significant weather observed at this time

METAR text: RCMQ 222030Z 02013KT 9000 SCT006 BKN016 BKN032 17/14 Q1016 RMK A3001
Conditions at: RCMQ (WUCHIA OBSERVATO, TW) observed 2030 UTC 22 March 2019
Temperature: 17.0°C (63°F)
Dewpoint: 14.0°C (57°F) [RH = 82%]
Pressure (altimeter): 30.00 inches Hg (1016.0 mb)
Winds: from the NNE (20 degrees) at 15 MPH (13 knots; 6.7 m/s)
Visibility: 6 miles ( 9 km)
Ceiling: 1600 feet AGL
Clouds: scattered clouds at 600 feet AGL
broken clouds at 1600 feet AGL
broken clouds at 3200 feet AGL
Weather: no significant weather observed at this time

METAR text: RCMQ 222000Z 01013KT 9000 SCT006 BKN016 BKN032 17/14 Q1015 RMK A3000
Conditions at: RCMQ (WUCHIA OBSERVATO, TW) observed 2000 UTC 22 March 2019
Temperature: 17.0°C (63°F)
Dewpoint: 14.0°C (57°F) [RH = 82%]
Pressure (altimeter): 29.97 inches Hg (1015.0 mb)
Winds: from the N (10 degrees) at 15 MPH (13 knots; 6.7 m/s)
Visibility: 6 miles ( 9 km)
Ceiling: 1600 feet AGL
Clouds: scattered clouds at 600 feet AGL
broken clouds at 1600 feet AGL
broken clouds at 3200 feet AGL
Weather: no significant weather observed at this time

METAR text: RCMQ 221930Z 01012KT 9000 SCT006 BKN016 BKN032 17/15 Q1014 RMK A2996
Conditions at: RCMQ (WUCHIA OBSERVATO, TW) observed 1930 UTC 22 March 2019
Temperature: 17.0°C (63°F)
Dewpoint: 15.0°C (59°F) [RH = 88%]
Pressure (altimeter): 29.94 inches Hg (1014.0 mb)
Winds: from the N (10 degrees) at 14 MPH (12 knots; 6.2 m/s)
Visibility: 6 miles ( 9 km)
Ceiling: 1600 feet AGL
Clouds: scattered clouds at 600 feet AGL
broken clouds at 1600 feet AGL
broken clouds at 3200 feet AGL
Weather: no significant weather observed at this time

METAR text: RCMQ 221910Z 36012KT 9000 -RA FEW006 SCT021 BKN040 17/15 Q1014 RMK A2996
Conditions at: RCMQ (WUCHIA OBSERVATO, TW) observed 1910 UTC 22 March 2019
Temperature: 17.0°C (63°F)
Dewpoint: 15.0°C (59°F) [RH = 88%]
Pressure (altimeter): 29.94 inches Hg (1014.0 mb)
Winds: from the N (360 degrees) at 14 MPH (12 knots; 6.2 m/s)
Visibility: 6 miles ( 9 km)
Ceiling: 4000 feet AGL
Clouds: few clouds at 600 feet AGL
scattered clouds at 2100 feet AGL
broken clouds at 4000 feet AGL
Weather: -RA  (light rain)

METAR text: RCMQ 221900Z 36011KT 9000 FEW008 BKN040 17/15 Q1014 RMK A2996
Conditions at: RCMQ (WUCHIA OBSERVATO, TW) observed 1900 UTC 22 March 2019
Temperature: 17.0°C (63°F)
Dewpoint: 15.0°C (59°F) [RH = 88%]
Pressure (altimeter): 29.94 inches Hg (1014.0 mb)
Winds: from the N (360 degrees) at 13 MPH (11 knots; 5.7 m/s)
Visibility: 6 miles ( 9 km)
Ceiling: 4000 feet AGL
Clouds: few clouds at 800 feet AGL
broken clouds at 4000 feet AGL
Weather: no significant weather observed at this time

METAR text: RCMQ 221800Z 01013KT 9000 FEW008 BKN040 17/15 Q1015 RMK A2999
Conditions at: RCMQ (WUCHIA OBSERVATO, TW) observed 1800 UTC 22 March 2019
Temperature: 17.0°C (63°F)
Dewpoint: 15.0°C (59°F) [RH = 88%]
Pressure (altimeter): 29.97 inches Hg (1015.0 mb)
Winds: from the N (10 degrees) at 15 MPH (13 knots; 6.7 m/s)
Visibility: 6 miles ( 9 km)
Ceiling: 4000 feet AGL
Clouds: few clouds at 800 feet AGL
broken clouds at 4000 feet AGL
Weather: no significant weather observed at this time

METAR text: RCMQ 221700Z 36009KT 9000 FEW008 SCT040 18/15 Q1015 RMK A2999
Conditions at: RCMQ (WUCHIA OBSERVATO, TW) observed 1700 UTC 22 March 2019
Temperature: 18.0°C (64°F)
Dewpoint: 15.0°C (59°F) [RH = 83%]
Pressure (altimeter): 29.97 inches Hg (1015.0 mb)
Winds: from the N (360 degrees) at 10 MPH (9 knots; 4.6 m/s)
Visibility: 6 miles ( 9 km)
Ceiling: at least 12,000 feet AGL
Clouds: few clouds at 800 feet AGL
scattered clouds at 4000 feet AGL
Weather: no significant weather observed at this time

METAR text: RCMQ 221600Z 02011KT 9000 FEW008 BKN040 18/15 Q1015 RMK A3000
Conditions at: RCMQ (WUCHIA OBSERVATO, TW) observed 1600 UTC 22 March 2019
Temperature: 18.0°C (64°F)
Dewpoint: 15.0°C (59°F) [RH = 83%]
Pressure (altimeter): 29.97 inches Hg (1015.0 mb)
Winds: from the NNE (20 degrees) at 13 MPH (11 knots; 5.7 m/s)
Visibility: 6 miles ( 9 km)
Ceiling: 4000 feet AGL
Clouds: few clouds at 800 feet AGL
broken clouds at 4000 feet AGL
Weather: no significant weather observed at this time

METAR text: RCMQ 221500Z 01011KT 9000 FEW008 SCT050 18/16 Q1016 RMK A3001
Conditions at: RCMQ (WUCHIA OBSERVATO, TW) observed 1500 UTC 22 March 2019
Temperature: 18.0°C (64°F)
Dewpoint: 16.0°C (61°F) [RH = 88%]
Pressure (altimeter): 30.00 inches Hg (1016.0 mb)
Winds: from the N (10 degrees) at 13 MPH (11 knots; 5.7 m/s)
Visibility: 6 miles ( 9 km)
Ceiling: at least 12,000 feet AGL
Clouds: few clouds at 800 feet AGL
scattered clouds at 5000 feet AGL
Weather: no significant weather observed at this time

METAR text: RCMQ 221400Z 02014KT 9000 FEW008 18/15 Q1015 NOSIG RMK A2999
Conditions at: RCMQ (WUCHIA OBSERVATO, TW) observed 1400 UTC 22 March 2019
Temperature: 18.0°C (64°F)
Dewpoint: 15.0°C (59°F) [RH = 83%]
Pressure (altimeter): 29.97 inches Hg (1015.0 mb)
Winds: from the NNE (20 degrees) at 16 MPH (14 knots; 7.2 m/s)
Visibility: 6 miles ( 9 km)
Ceiling: at least 12,000 feet AGL
Clouds: few clouds at 800 feet AGL
Weather: no significant weather observed at this time

METAR text: RCMQ 221330Z 02015KT 9000 FEW010 SCT050 18/15 Q1015 NOSIG RMK A3000
Conditions at: RCMQ (WUCHIA OBSERVATO, TW) observed 1330 UTC 22 March 2019
Temperature: 18.0°C (64°F)
Dewpoint: 15.0°C (59°F) [RH = 83%]
Pressure (altimeter): 29.97 inches Hg (1015.0 mb)
Winds: from the NNE (20 degrees) at 17 MPH (15 knots; 7.7 m/s)
Visibility: 6 miles ( 9 km)
Ceiling: at least 12,000 feet AGL
Clouds: few clouds at 1000 feet AGL
scattered clouds at 5000 feet AGL
Weather: no significant weather observed at this time

METAR text: RCMQ 221300Z 36013KT 9000 FEW010 SCT032 18/16 Q1015 NOSIG RMK A3000
Conditions at: RCMQ (WUCHIA OBSERVATO, TW) observed 1300 UTC 22 March 2019
Temperature: 18.0°C (64°F)
Dewpoint: 16.0°C (61°F) [RH = 88%]
Pressure (altimeter): 29.97 inches Hg (1015.0 mb)
Winds: from the N (360 degrees) at 15 MPH (13 knots; 6.7 m/s)
Visibility: 6 miles ( 9 km)
Ceiling: at least 12,000 feet AGL
Clouds: few clouds at 1000 feet AGL
scattered clouds at 3200 feet AGL
Weather: no significant weather observed at this time

METAR text: RCMQ 221230Z 01010KT 9999 FEW010 BKN050 18/16 Q1014 NOSIG RMK A2997
Conditions at: RCMQ (WUCHIA OBSERVATO, TW) observed 1230 UTC 22 March 2019
Temperature: 18.0°C (64°F)
Dewpoint: 16.0°C (61°F) [RH = 88%]
Pressure (altimeter): 29.94 inches Hg (1014.0 mb)
Winds: from the N (10 degrees) at 12 MPH (10 knots; 5.1 m/s)
Visibility: 6 or more miles (10+ km)
Ceiling: 5000 feet AGL
Clouds: few clouds at 1000 feet AGL
broken clouds at 5000 feet AGL
Weather: no significant weather observed at this time

METAR text: RCMQ 221200Z 36010KT 9999 FEW010 BKN050 19/16 Q1014 NOSIG RMK A2996
Conditions at: RCMQ (WUCHIA OBSERVATO, TW) observed 1200 UTC 22 March 2019
Temperature: 19.0°C (66°F)
Dewpoint: 16.0°C (61°F) [RH = 83%]
Pressure (altimeter): 29.94 inches Hg (1014.0 mb)
Winds: from the N (360 degrees) at 12 MPH (10 knots; 5.1 m/s)
Visibility: 6 or more miles (10+ km)
Ceiling: 5000 feet AGL
Clouds: few clouds at 1000 feet AGL
broken clouds at 5000 feet AGL
Weather: no significant weather observed at this time

METAR text: RCMQ 221130Z 02012KT 9999 FEW010 SCT021 BKN040 19/17 Q1013 NOSIG RMK A2994
Conditions at: RCMQ (WUCHIA OBSERVATO, TW) observed 1130 UTC 22 March 2019
Temperature: 19.0°C (66°F)
Dewpoint: 17.0°C (63°F) [RH = 88%]
Pressure (altimeter): 29.91 inches Hg (1013.0 mb)
Winds: from the NNE (20 degrees) at 14 MPH (12 knots; 6.2 m/s)
Visibility: 6 or more miles (10+ km)
Ceiling: 4000 feet AGL
Clouds: few clouds at 1000 feet AGL
scattered clouds at 2100 feet AGL
broken clouds at 4000 feet AGL
Weather: no significant weather observed at this time

METAR text: RCMQ 221100Z 01012KT 9999 FEW010 SCT021 BKN040 19/17 Q1013 NOSIG RMK A2994
Conditions at: RCMQ (WUCHIA OBSERVATO, TW) observed 1100 UTC 22 March 2019
Temperature: 19.0°C (66°F)
Dewpoint: 17.0°C (63°F) [RH = 88%]
Pressure (altimeter): 29.91 inches Hg (1013.0 mb)
Winds: from the N (10 degrees) at 14 MPH (12 knots; 6.2 m/s)
Visibility: 6 or more miles (10+ km)
Ceiling: 4000 feet AGL
Clouds: few clouds at 1000 feet AGL
scattered clouds at 2100 feet AGL
broken clouds at 4000 feet AGL
Weather: no significant weather observed at this time

Forecast for: RCMQ (WUCHIA OBSERVATO, TW)
Text: TAF RCMQ 231700Z 2318/2418 36016KT 9999 SCT006 BKN016 BKN040 TX20/2406Z TN16/2321Z
Forecast period: 1800 to 2000 UTC 23 March 2019
Forecast type: FROM: standard forecast or significant change
Winds: from the N (360 degrees) at 18 MPH (16 knots; 8.2 m/s)
Visibility: 6 or more miles 10+ km)
Ceiling: 1600 feet AGL
Clouds: scattered clouds at 600 feet AGL
broken clouds at 1600 feet AGL
broken clouds at 4000 feet AGL
Weather: no significant weather forecast for this period
Text: BECMG 2320/2323 02010KT 7000
Forecast period: 2000 UTC 23 March 2019 to 0100 UTC 24 March 2019
Forecast type: BECOMING: Conditions expected to become as follows by 2300 UTC 23 March 2019
Winds: from the NNE (20 degrees) at 12 MPH (10 knots; 5.1 m/s)
Visibility: 4 miles (7 km)
Ceiling: 1600 feet AGL
Clouds: scattered clouds at 600 feet AGL
broken clouds at 1600 feet AGL
broken clouds at 4000 feet AGL
Weather: no significant weather forecast for this period
Text: BECMG 2401/2404 6000 -RA
Forecast period: 0100 to 1400 UTC 24 March 2019
Forecast type: BECOMING: Conditions expected to become as follows by 0400 UTC 24 March 2019
Winds: from the NNE (20 degrees) at 12 MPH (10 knots; 5.1 m/s)
Visibility: 4 miles (6 km)
Ceiling: 1600 feet AGL
Clouds: scattered clouds at 600 feet AGL
broken clouds at 1600 feet AGL
broken clouds at 4000 feet AGL
Weather: -RA  (light rain)
Text: BECMG 2414/2417 9000 FEW008 BKN025 BKN050
Forecast period: 1400 to 1800 UTC 24 March 2019
Forecast type: BECOMING: Conditions expected to become as follows by 1700 UTC 24 March 2019
Winds: from the NNE (20 degrees) at 12 MPH (10 knots; 5.1 m/s)
Visibility: 6 miles (9 km)
Ceiling: 2500 feet AGL
Clouds: few clouds at 800 feet AGL
broken clouds at 2500 feet AGL
broken clouds at 5000 feet AGL
Weather: -RA  (light rain)